createdAt,value
2022-09-13T00:00:46.466Z,19.80
2022-09-13T00:03:13.489Z,19.70
2022-09-13T00:05:40.189Z,19.70
2022-09-13T00:08:07.404Z,19.60
2022-09-13T00:10:35.290Z,19.60
2022-09-13T00:13:02.023Z,19.50
2022-09-13T00:15:29.108Z,19.60
2022-09-13T00:17:56.233Z,19.60
2022-09-13T00:20:23.268Z,19.50
2022-09-13T00:22:50.075Z,19.50
2022-09-13T00:25:16.848Z,19.50
2022-09-13T00:27:44.670Z,19.50
2022-09-13T00:30:11.750Z,19.50
2022-09-13T00:32:38.883Z,19.50
2022-09-13T00:35:06.552Z,19.50
2022-09-13T00:37:34.195Z,19.50
2022-09-13T00:40:01.540Z,19.40
2022-09-13T00:42:29.343Z,19.50
2022-09-13T00:44:56.079Z,19.40
2022-09-13T00:47:26.917Z,19.40
2022-09-13T00:49:57.968Z,19.40
2022-09-13T00:52:26.617Z,19.30
2022-09-13T00:54:56.840Z,19.30
2022-09-13T00:57:24.375Z,19.20
2022-09-13T01:00:08.786Z,19.30
2022-09-13T01:02:35.703Z,19.30
2022-09-13T01:05:02.860Z,19.30
2022-09-13T01:07:29.907Z,19.20
2022-09-13T01:09:57.254Z,19.20
2022-09-13T01:12:32.209Z,19.20
2022-09-13T01:15:00.725Z,19.10
2022-09-13T01:17:29.256Z,19.20
2022-09-13T01:19:56.093Z,19.10
2022-09-13T01:22:34.792Z,19.20
2022-09-13T01:25:01.591Z,19.10
2022-09-13T01:27:47.097Z,19.20
2022-09-13T01:30:16.829Z,19.10
2022-09-13T01:32:43.713Z,19.10
2022-09-13T01:35:17.058Z,19.10
2022-09-13T01:37:50.993Z,19.10
2022-09-13T01:40:32.808Z,19.20
2022-09-13T01:43:02.675Z,19.20
2022-09-13T01:45:29.519Z,19.20
2022-09-13T01:47:56.228Z,19.10
2022-09-13T01:50:41.875Z,19.00
2022-09-13T01:53:28.865Z,19.00
2022-09-13T01:56:14.257Z,18.90
2022-09-13T01:58:46.297Z,19.00
2022-09-13T02:01:18.173Z,19.00
2022-09-13T02:03:57.188Z,19.00
2022-09-13T02:06:26.569Z,19.10
2022-09-13T02:09:21.415Z,19.00
2022-09-13T02:11:56.295Z,19.10
2022-09-13T02:14:27.191Z,19.20
2022-09-13T02:16:58.703Z,19.10
2022-09-13T02:19:45.923Z,19.10
2022-09-13T02:22:15.847Z,19.10
2022-09-13T02:24:45.282Z,19.00
2022-09-13T02:27:16.880Z,19.00
2022-09-13T02:29:45.347Z,18.90
2022-09-13T02:32:14.671Z,19.00
2022-09-13T02:34:43.833Z,19.00
2022-09-13T02:37:11.339Z,19.10
2022-09-13T02:39:40.397Z,19.00
2022-09-13T02:42:19.936Z,19.20
2022-09-13T02:44:48.719Z,19.10
2022-09-13T02:47:24.482Z,19.00
2022-09-13T02:50:00.358Z,19.10
2022-09-13T02:52:50.474Z,19.00
2022-09-13T02:55:27.832Z,19.10
2022-09-13T02:58:03.071Z,19.10
2022-09-13T03:00:29.764Z,19.10
2022-09-13T03:02:58.471Z,19.20
2022-09-13T03:05:25.304Z,19.10
2022-09-13T03:07:52.537Z,19.20
2022-09-13T03:10:20.508Z,19.20
2022-09-13T03:13:11.653Z,19.20
2022-09-13T03:15:59.646Z,19.00
2022-09-13T03:18:36.233Z,19.00
2022-09-13T03:21:11.784Z,18.90
2022-09-13T03:23:47.679Z,18.90
2022-09-13T03:26:20.107Z,18.90
2022-09-13T03:29:05.894Z,19.00
2022-09-13T03:31:34.767Z,19.00
2022-09-13T03:34:13.466Z,18.90
2022-09-13T03:37:06.672Z,18.90
2022-09-13T03:39:33.336Z,18.90
2022-09-13T03:42:03.353Z,18.80
2022-09-13T03:44:30.537Z,19.00
2022-09-13T03:46:58.573Z,18.90
2022-09-13T03:49:26.850Z,18.90
2022-09-13T03:51:54.036Z,18.80
2022-09-13T03:54:32.371Z,18.80
2022-09-13T03:57:11.407Z,18.80
2022-09-13T03:59:39.292Z,18.80
2022-09-13T04:02:08.022Z,18.80
2022-09-13T04:04:34.806Z,18.70
2022-09-13T04:07:03.536Z,18.80
2022-09-13T04:09:31.238Z,18.70
2022-09-13T04:11:58.028Z,18.80
2022-09-13T04:14:26.528Z,18.90
2022-09-13T04:16:54.214Z,18.80
2022-09-13T04:19:21.032Z,18.80
2022-09-13T04:21:49.463Z,18.80
2022-09-13T04:24:17.144Z,18.90
2022-09-13T04:26:44.572Z,18.90
2022-09-13T04:29:11.633Z,18.80
2022-09-13T04:31:38.335Z,18.90
2022-09-13T04:34:06.623Z,18.80
2022-09-13T04:36:33.666Z,18.90
2022-09-13T04:39:00.483Z,19.00
2022-09-13T04:41:27.253Z,18.90
2022-09-13T04:43:53.955Z,18.70
2022-09-13T04:46:20.776Z,18.80
2022-09-13T04:48:51.242Z,18.70
2022-09-13T04:51:18.669Z,18.70
2022-09-13T04:53:45.937Z,18.70
2022-09-13T04:56:15.046Z,18.60
2022-09-13T04:58:42.114Z,18.70
2022-09-13T05:01:09.645Z,18.70
2022-09-13T05:03:36.688Z,18.60
2022-09-13T05:06:08.697Z,18.70
2022-09-13T05:08:35.601Z,18.70
2022-09-13T05:11:02.456Z,18.70
2022-09-13T05:13:29.279Z,18.80
2022-09-13T05:15:56.944Z,18.80
2022-09-13T05:18:26.252Z,18.80
2022-09-13T05:20:56.595Z,19.00
2022-09-13T05:23:23.974Z,18.80
2022-09-13T05:25:54.942Z,18.80
2022-09-13T05:28:22.061Z,18.90
2022-09-13T05:31:15.407Z,19.00
2022-09-13T05:33:42.203Z,19.10
2022-09-13T05:36:08.963Z,19.20
2022-09-13T05:38:35.800Z,19.30
2022-09-13T05:41:03.433Z,19.10
2022-09-13T05:43:32.996Z,19.30
2022-09-13T05:46:11.204Z,19.30
2022-09-13T05:48:38.554Z,19.50
2022-09-13T05:51:15.781Z,19.70
2022-09-13T05:53:43.503Z,19.80
2022-09-13T05:56:16.333Z,19.90
2022-09-13T05:58:44.807Z,19.80
2022-09-13T06:01:12.064Z,19.80
2022-09-13T06:03:39.134Z,19.90
2022-09-13T06:06:05.923Z,19.90
2022-09-13T06:08:33.592Z,20.00
2022-09-13T06:11:01.908Z,20.80
2022-09-13T06:13:29.518Z,22.20
2022-09-13T06:15:57.145Z,22.10
2022-09-13T06:18:27.200Z,21.60
2022-09-13T06:21:00.732Z,22.20
2022-09-13T06:23:28.107Z,22.20
2022-09-13T06:26:01.644Z,23.00
2022-09-13T06:28:28.436Z,24.60
2022-09-13T06:31:04.741Z,26.10
2022-09-13T06:33:32.517Z,26.90
2022-09-13T06:36:06.287Z,28.00
2022-09-13T06:38:32.997Z,28.50
2022-09-13T06:41:04.617Z,28.60
2022-09-13T06:43:31.324Z,28.90
2022-09-13T06:46:06.399Z,29.40
2022-09-13T06:48:34.069Z,29.90
2022-09-13T06:51:01.378Z,30.10
2022-09-13T06:53:28.950Z,30.40
2022-09-13T06:56:04.744Z,30.80
2022-09-13T06:58:32.011Z,30.80
2022-09-13T07:01:12.570Z,30.90
2022-09-13T07:03:40.716Z,31.30
2022-09-13T07:06:27.765Z,31.20
2022-09-13T07:08:55.373Z,31.70
2022-09-13T07:11:23.290Z,31.70
2022-09-13T07:13:50.833Z,31.60
2022-09-13T07:16:18.261Z,32.00
2022-09-13T07:18:45.768Z,32.10
2022-09-13T07:21:12.768Z,31.90
2022-09-13T07:23:39.737Z,32.10
2022-09-13T07:26:07.241Z,31.30
2022-09-13T07:28:47.523Z,31.40
2022-09-13T07:31:21.475Z,30.60
2022-09-13T07:33:49.178Z,29.90
2022-09-13T07:36:16.003Z,28.50
2022-09-13T07:38:45.329Z,26.40
2022-09-13T07:41:16.607Z,25.30
2022-09-13T07:43:43.734Z,24.80
2022-09-13T07:46:11.647Z,24.60
2022-09-13T07:48:39.488Z,24.40
2022-09-13T07:51:25.570Z,24.30
2022-09-13T07:53:57.317Z,24.60
2022-09-13T07:56:28.840Z,24.70
2022-09-13T07:58:56.125Z,24.80
2022-09-13T08:01:24.112Z,24.70
2022-09-13T08:03:57.692Z,24.90
2022-09-13T08:06:25.180Z,25.10
2022-09-13T08:08:52.181Z,25.00
2022-09-13T08:11:39.212Z,25.20
2022-09-13T08:14:07.621Z,24.90
2022-09-13T08:16:34.400Z,25.10
2022-09-13T08:19:02.599Z,25.30
2022-09-13T08:21:35.673Z,25.50
2022-09-13T08:24:02.659Z,25.40
2022-09-13T08:26:30.152Z,25.60
2022-09-13T08:28:58.263Z,25.40
2022-09-13T08:31:25.563Z,25.50
2022-09-13T08:33:53.447Z,25.50
2022-09-13T08:36:20.860Z,25.60
2022-09-13T08:38:48.348Z,25.90
2022-09-13T08:41:33.973Z,26.10
2022-09-13T08:44:00.701Z,26.20
2022-09-13T08:46:29.279Z,26.10
2022-09-13T08:48:58.067Z,26.30
2022-09-13T08:51:29.333Z,26.10
2022-09-13T08:53:57.339Z,26.00
2022-09-13T08:56:31.911Z,26.00
2022-09-13T08:59:17.203Z,26.10
2022-09-13T09:01:50.247Z,26.30
2022-09-13T09:04:22.953Z,26.50
2022-09-13T09:06:49.739Z,26.40
2022-09-13T09:09:18.305Z,26.60
2022-09-13T09:11:50.556Z,26.20
2022-09-13T09:14:32.390Z,26.20
2022-09-13T09:17:01.828Z,26.00
2022-09-13T09:19:34.413Z,25.80
2022-09-13T09:22:06.097Z,26.30
2022-09-13T09:24:36.218Z,26.20
2022-09-13T09:27:08.871Z,26.30
2022-09-13T09:29:36.939Z,26.90
2022-09-13T09:32:09.433Z,26.90
2022-09-13T09:34:42.717Z,27.10
2022-09-13T09:37:12.603Z,27.20
2022-09-13T09:39:40.821Z,27.10
2022-09-13T09:42:17.122Z,27.00
2022-09-13T09:44:45.508Z,27.40
2022-09-13T09:47:14.817Z,27.30
2022-09-13T09:50:05.419Z,27.10
2022-09-13T09:52:53.554Z,27.40
2022-09-13T09:55:23.261Z,27.50
2022-09-13T09:57:52.784Z,27.60
2022-09-13T10:00:20.499Z,27.20
2022-09-13T10:02:48.722Z,27.70
2022-09-13T10:05:19.557Z,27.50
2022-09-13T10:07:53.966Z,27.50
2022-09-13T10:10:23.635Z,27.50
2022-09-13T10:12:51.910Z,27.80
2022-09-13T10:15:23.415Z,28.10
2022-09-13T10:18:21.080Z,28.20
2022-09-13T10:21:19.752Z,28.40
2022-09-13T10:23:53.375Z,28.30
2022-09-13T10:26:25.495Z,28.00
2022-09-13T10:28:52.168Z,28.20
2022-09-13T10:31:20.569Z,28.10
2022-09-13T10:33:47.289Z,27.90
2022-09-13T10:36:35.265Z,27.80
2022-09-13T10:39:17.553Z,28.10
2022-09-13T10:41:49.565Z,28.30
2022-09-13T10:44:42.825Z,28.50
2022-09-13T10:47:13.952Z,28.10
2022-09-13T10:49:52.885Z,27.80
2022-09-13T10:52:24.124Z,27.80
2022-09-13T10:54:50.993Z,28.20
2022-09-13T10:57:47.503Z,28.50
2022-09-13T11:00:17.547Z,28.40
2022-09-13T11:02:50.241Z,28.10
2022-09-13T11:05:19.804Z,27.70
2022-09-13T11:07:46.533Z,27.90
2022-09-13T11:10:28.144Z,27.90
2022-09-13T11:13:00.414Z,28.20
2022-09-13T11:15:40.604Z,28.70
2022-09-13T11:18:13.261Z,28.60
2022-09-13T11:21:00.263Z,28.80
2022-09-13T11:23:27.040Z,28.80
2022-09-13T11:26:26.058Z,28.90
2022-09-13T11:28:55.631Z,29.00
2022-09-13T11:31:38.511Z,29.10
2022-09-13T11:34:12.011Z,29.10
2022-09-13T11:36:52.870Z,28.40
2022-09-13T11:39:26.621Z,28.50
2022-09-13T11:42:11.909Z,28.60
2022-09-13T11:44:53.701Z,28.50
2022-09-13T11:47:23.594Z,28.60
2022-09-13T11:50:00.040Z,28.60
2022-09-13T11:52:26.976Z,28.70
2022-09-13T11:55:03.861Z,28.80
2022-09-13T11:57:32.880Z,28.60
2022-09-13T12:00:02.538Z,29.10
2022-09-13T12:02:34.627Z,29.20
2022-09-13T12:05:22.041Z,29.20
2022-09-13T12:07:55.543Z,29.00
2022-09-13T12:10:25.448Z,29.10
2022-09-13T12:12:53.786Z,29.20
2022-09-13T12:15:26.500Z,29.10
2022-09-13T12:17:56.455Z,29.40
2022-09-13T12:20:41.892Z,29.30
2022-09-13T12:23:29.021Z,29.00
2022-09-13T12:26:00.985Z,28.80
2022-09-13T12:28:46.394Z,28.60
2022-09-13T12:31:19.516Z,28.60
2022-09-13T12:33:47.475Z,28.50
2022-09-13T12:36:26.211Z,28.30
2022-09-13T12:39:05.038Z,28.20
2022-09-13T12:41:50.240Z,28.10
2022-09-13T12:44:41.252Z,28.30
2022-09-13T12:47:16.106Z,28.20
2022-09-13T12:49:43.004Z,28.20
2022-09-13T12:52:25.164Z,28.30
2022-09-13T12:55:23.752Z,28.40
2022-09-13T12:58:03.410Z,28.50
2022-09-13T13:00:33.300Z,28.60
2022-09-13T13:03:11.973Z,28.30
2022-09-13T13:05:41.361Z,28.50
2022-09-13T13:08:20.321Z,28.60
2022-09-13T13:11:05.595Z,28.90
2022-09-13T13:13:45.768Z,28.60
2022-09-13T13:16:30.740Z,28.30
2022-09-13T13:18:58.597Z,28.30
2022-09-13T13:21:25.308Z,28.30
2022-09-13T13:24:10.685Z,28.30
2022-09-13T13:26:44.530Z,28.60
2022-09-13T13:29:23.366Z,29.30
2022-09-13T13:32:07.450Z,29.10
2022-09-13T13:34:39.702Z,29.20
2022-09-13T13:37:06.472Z,29.30
2022-09-13T13:39:34.840Z,29.10
2022-09-13T13:42:10.177Z,28.90
2022-09-13T13:44:36.860Z,28.90
2022-09-13T13:47:09.828Z,28.80
2022-09-13T13:49:39.427Z,28.80
2022-09-13T13:52:06.120Z,28.60
2022-09-13T13:54:58.381Z,28.60
2022-09-13T13:57:25.250Z,28.60
2022-09-13T13:59:54.311Z,28.60
2022-09-13T14:02:23.459Z,28.60
2022-09-13T14:05:06.085Z,28.80
2022-09-13T14:07:58.218Z,28.80
2022-09-13T14:10:31.929Z,28.90
2022-09-13T14:13:04.456Z,28.80
2022-09-13T14:15:35.858Z,28.60
2022-09-13T14:18:20.796Z,28.60
2022-09-13T14:21:00.665Z,29.10
2022-09-13T14:23:27.577Z,28.90
2022-09-13T14:25:55.825Z,28.70
2022-09-13T14:28:23.144Z,28.50
2022-09-13T14:30:53.374Z,28.80
2022-09-13T14:33:23.796Z,28.60
2022-09-13T14:35:57.548Z,28.70
2022-09-13T14:38:26.649Z,28.80
2022-09-13T14:40:54.559Z,29.00
2022-09-13T14:43:22.772Z,28.90
2022-09-13T14:45:57.270Z,29.10
2022-09-13T14:48:36.194Z,28.90
2022-09-13T14:51:14.228Z,28.90
2022-09-13T14:53:43.266Z,28.70
2022-09-13T14:56:25.560Z,28.50
2022-09-13T14:58:54.307Z,28.20
2022-09-13T15:01:26.409Z,28.30
2022-09-13T15:03:55.331Z,28.20
2022-09-13T15:06:24.167Z,28.10
2022-09-13T15:08:52.107Z,27.90
2022-09-13T15:11:29.697Z,28.00
2022-09-13T15:14:03.524Z,28.00
2022-09-13T15:16:34.283Z,28.00
2022-09-13T15:19:36.392Z,28.00
2022-09-13T15:22:11.411Z,28.20
2022-09-13T15:24:42.469Z,28.20
2022-09-13T15:27:17.276Z,28.20
2022-09-13T15:29:51.205Z,28.10
2022-09-13T15:32:44.449Z,27.90
2022-09-13T15:35:19.075Z,28.10
2022-09-13T15:37:45.776Z,28.10
2022-09-13T15:40:21.943Z,28.00
2022-09-13T15:42:49.764Z,28.00
2022-09-13T15:45:17.393Z,28.10
2022-09-13T15:47:48.100Z,28.20
2022-09-13T15:50:22.347Z,28.10
2022-09-13T15:52:49.147Z,27.90
2022-09-13T15:55:15.944Z,27.90
2022-09-13T15:57:44.493Z,27.70
2022-09-13T16:00:15.532Z,27.50
2022-09-13T16:02:42.364Z,27.40
2022-09-13T16:05:09.195Z,27.30
2022-09-13T16:07:35.943Z,27.10
2022-09-13T16:10:03.492Z,27.10
2022-09-13T16:12:30.273Z,26.90
2022-09-13T16:14:57.017Z,26.90
2022-09-13T16:17:25.217Z,26.80
2022-09-13T16:19:52.401Z,26.70
2022-09-13T16:22:19.157Z,26.60
2022-09-13T16:24:46.402Z,26.50
2022-09-13T16:27:14.680Z,26.40
2022-09-13T16:29:41.545Z,26.40
2022-09-13T16:32:08.279Z,26.40
2022-09-13T16:34:35.020Z,26.30
2022-09-13T16:37:01.916Z,26.30
2022-09-13T16:39:29.177Z,26.30
2022-09-13T16:41:55.926Z,26.20
2022-09-13T16:44:22.794Z,26.10
2022-09-13T16:46:49.801Z,25.90
2022-09-13T16:49:17.239Z,25.70
2022-09-13T16:51:44.035Z,25.50
2022-09-13T16:54:10.827Z,25.30
2022-09-13T16:56:37.770Z,25.10
2022-09-13T16:59:04.515Z,25.00
2022-09-13T17:01:31.538Z,25.00
2022-09-13T17:03:58.748Z,24.90
2022-09-13T17:06:26.491Z,24.80
2022-09-13T17:08:55.470Z,24.70
2022-09-13T17:11:23.748Z,24.70
2022-09-13T17:13:50.553Z,24.60
2022-09-13T17:16:30.707Z,24.50
2022-09-13T17:18:58.341Z,24.50
2022-09-13T17:21:25.495Z,24.50
2022-09-13T17:23:52.353Z,24.40
2022-09-13T17:26:19.142Z,24.20
2022-09-13T17:28:45.892Z,24.10
2022-09-13T17:31:12.649Z,24.00
2022-09-13T17:33:39.525Z,23.80
2022-09-13T17:36:08.424Z,23.80
2022-09-13T17:38:35.760Z,23.80
2022-09-13T17:41:04.055Z,23.70
2022-09-13T17:43:30.838Z,23.70
2022-09-13T17:45:57.703Z,23.70
2022-09-13T17:48:24.443Z,23.50
2022-09-13T17:50:51.323Z,23.60
2022-09-13T17:53:18.092Z,23.50
2022-09-13T17:55:48.532Z,23.40
2022-09-13T17:58:15.949Z,23.30
2022-09-13T18:00:42.861Z,23.50
2022-09-13T18:03:09.718Z,23.30
2022-09-13T18:05:36.482Z,23.20
2022-09-13T18:08:03.309Z,23.30
2022-09-13T18:10:57.975Z,23.30
2022-09-13T18:13:16.822Z,23.20
2022-09-13T18:15:43.635Z,23.30
2022-09-13T18:18:10.509Z,23.20
2022-09-13T18:20:40.546Z,23.20
2022-09-13T18:23:08.126Z,23.20
2022-09-13T18:25:34.820Z,23.20
2022-09-13T18:28:01.718Z,23.20
2022-09-13T18:30:28.379Z,23.00
2022-09-13T18:32:55.122Z,23.00
2022-09-13T18:35:21.940Z,23.10
2022-09-13T18:37:50.049Z,23.10
2022-09-13T18:40:17.493Z,23.10
2022-09-13T18:42:45.162Z,23.10
2022-09-13T18:45:12.166Z,23.00
2022-09-13T18:47:38.853Z,23.00
2022-09-13T18:50:09.075Z,22.90
2022-09-13T18:52:38.923Z,22.80
2022-09-13T18:55:05.903Z,22.90
2022-09-13T18:57:32.736Z,23.00
2022-09-13T18:59:59.480Z,23.10
2022-09-13T19:02:26.429Z,23.00
2022-09-13T19:04:53.346Z,23.00
2022-09-13T19:07:20.114Z,22.90
2022-09-13T19:09:46.837Z,23.00
2022-09-13T19:12:13.569Z,22.90
2022-09-13T19:14:40.306Z,23.00
2022-09-13T19:17:07.063Z,22.90
2022-09-13T19:19:35.510Z,22.80
2022-09-13T19:22:02.226Z,22.80
2022-09-13T19:24:29.096Z,22.70
2022-09-13T19:26:55.919Z,22.70
2022-09-13T19:29:23.228Z,22.60
2022-09-13T19:31:52.141Z,22.70
2022-09-13T19:34:19.536Z,22.60
2022-09-13T19:36:47.025Z,22.60
2022-09-13T19:39:13.813Z,22.60
2022-09-13T19:41:41.039Z,22.60
2022-09-13T19:44:08.854Z,22.60
2022-09-13T19:46:37.704Z,22.60
2022-09-13T19:49:04.898Z,22.50
2022-09-13T19:51:36.001Z,22.60
2022-09-13T19:54:03.113Z,22.60
2022-09-13T19:56:32.140Z,22.50
2022-09-13T19:58:59.501Z,22.50
2022-09-13T20:01:28.261Z,22.50
2022-09-13T20:03:56.421Z,22.50
2022-09-13T20:06:24.108Z,22.50
2022-09-13T20:08:52.447Z,22.40
2022-09-13T20:11:19.800Z,22.40
2022-09-13T20:13:48.130Z,22.50
2022-09-13T20:16:17.322Z,22.50
2022-09-13T20:18:44.473Z,22.40
2022-09-13T20:21:11.572Z,22.30
2022-09-13T20:23:40.717Z,22.30
2022-09-13T20:26:14.907Z,22.30
2022-09-13T20:28:42.014Z,22.40
2022-09-13T20:31:09.459Z,22.40
2022-09-13T20:33:36.795Z,22.40
2022-09-13T20:36:04.505Z,22.40
2022-09-13T20:38:31.170Z,22.30
2022-09-13T20:41:05.720Z,22.20
2022-09-13T20:43:33.577Z,22.30
2022-09-13T20:46:02.504Z,22.20
2022-09-13T20:48:29.356Z,22.10
2022-09-13T20:51:00.124Z,22.10
2022-09-13T20:53:27.329Z,22.10
2022-09-13T20:55:54.034Z,22.00
2022-09-13T20:58:21.567Z,21.90
2022-09-13T21:00:48.936Z,22.00
2022-09-13T21:03:16.317Z,21.90
2022-09-13T21:05:43.317Z,21.90
2022-09-13T21:08:37.624Z,21.70
2022-09-13T21:11:04.744Z,21.70
2022-09-13T21:13:38.192Z,21.70
2022-09-13T21:16:24.020Z,21.70
2022-09-13T21:18:51.524Z,21.70
2022-09-13T21:21:19.785Z,21.60
2022-09-13T21:23:47.753Z,21.70
2022-09-13T21:26:15.942Z,21.70
2022-09-13T21:28:43.158Z,21.60
2022-09-13T21:31:11.921Z,21.60
2022-09-13T21:33:39.193Z,21.50
2022-09-13T21:36:06.115Z,21.40
2022-09-13T21:38:33.952Z,21.40
2022-09-13T21:41:03.657Z,21.40
2022-09-13T21:43:30.608Z,21.40
2022-09-13T21:46:07.924Z,21.40
2022-09-13T21:48:35.441Z,21.40
2022-09-13T21:51:06.387Z,21.30
2022-09-13T21:53:36.923Z,21.40
2022-09-13T21:56:04.327Z,21.40
2022-09-13T21:58:31.147Z,21.40
2022-09-13T22:01:06.220Z,21.40
2022-09-13T22:03:37.680Z,21.40
2022-09-13T22:06:05.161Z,21.40
2022-09-13T22:08:33.645Z,21.40
2022-09-13T22:11:07.956Z,21.40
2022-09-13T22:13:35.721Z,21.40
2022-09-13T22:16:03.316Z,21.50
2022-09-13T22:18:30.018Z,21.50
2022-09-13T22:20:56.765Z,21.60
2022-09-13T22:23:23.503Z,21.50
2022-09-13T22:25:52.072Z,21.60
2022-09-13T22:28:18.768Z,21.60
2022-09-13T22:30:45.724Z,21.60
2022-09-13T22:33:12.563Z,21.50
2022-09-13T22:35:39.588Z,21.50
2022-09-13T22:38:06.280Z,21.50
2022-09-13T22:40:32.980Z,21.60
2022-09-13T22:42:59.651Z,21.70
2022-09-13T22:45:26.429Z,21.70
2022-09-13T22:47:53.114Z,21.70
2022-09-13T22:50:19.810Z,21.70
2022-09-13T22:52:46.646Z,21.60
2022-09-13T22:55:13.344Z,21.60
2022-09-13T22:57:40.060Z,21.60
2022-09-13T23:00:07.284Z,21.60
2022-09-13T23:02:35.131Z,21.50
2022-09-13T23:05:01.964Z,21.50
2022-09-13T23:07:28.757Z,21.50
2022-09-13T23:09:55.566Z,21.50
2022-09-13T23:12:22.276Z,21.60
2022-09-13T23:14:49.047Z,21.50
2022-09-13T23:17:15.941Z,21.50
2022-09-13T23:19:42.718Z,21.50
2022-09-13T23:22:09.434Z,21.50
2022-09-13T23:24:36.203Z,21.50
2022-09-13T23:27:02.887Z,21.50
2022-09-13T23:29:29.571Z,21.50
2022-09-13T23:31:56.371Z,21.50
2022-09-13T23:34:23.183Z,21.40
2022-09-13T23:36:50.954Z,21.40
2022-09-13T23:39:18.862Z,21.30
2022-09-13T23:41:46.451Z,21.20
2022-09-13T23:44:13.269Z,21.30
2022-09-13T23:46:40.465Z,21.30
2022-09-13T23:49:07.288Z,21.40
2022-09-13T23:51:34.123Z,21.30
2022-09-13T23:54:01.377Z,21.30
2022-09-13T23:56:29.037Z,21.30
2022-09-13T23:58:57.392Z,21.30
